Time;durP1;ratioP1;P1;durP2;ratioP2;P2;SDS_P1;SDS_P2;PMS_P1;PMS_P2;Temp;Humidity;BMP_temperature;BMP_pressure;BME280_temperature;BME280_humidity;BME280_pressure;Samples;Min_cycle;Max_cycle;Signal;HPM_P1;HPM_P2
2022/12/31 00:01:41;;;;;;;1.50;1.13;;;;;;;;;;5016876;28;20114;-79
2022/12/31 00:04:07;;;;;;;1.30;1.00;;;;;;;;;;5046181;28;20120;-79
2022/12/31 00:06:34;;;;;;;1.70;1.10;;;;;;;;;;5047541;28;20609;-78
2022/12/31 00:09:03;;;;;;;1.55;1.20;;;;;;;;;;5046891;28;20060;-78
2022/12/31 00:11:29;;;;;;;1.10;1.00;;;;;;;;;;5029073;28;20521;-78
2022/12/31 00:13:56;;;;;;;1.25;1.05;;;;;;;;;;5046557;28;20059;-78
2022/12/31 00:16:35;;;;;;;0.75;0.68;;;;;;;;;;5046665;28;20182;-78
2022/12/31 00:19:00;;;;;;;1.40;1.00;;;;;;;;;;5046698;28;20037;-78
2022/12/31 00:21:28;;;;;;;0.75;0.70;;;;;;;;;;5041977;28;20017;-78
2022/12/31 00:23:53;;;;;;;1.02;0.60;;;;;;;;;;5028692;28;20029;-78
2022/12/31 00:26:23;;;;;;;0.73;0.70;;;;;;;;;;5046058;28;20055;-78
2022/12/31 00:28:50;;;;;;;1.25;0.60;;;;;;;;;;5044999;28;20045;-78
2022/12/31 00:31:23;;;;;;;0.65;0.63;;;;;;;;;;5045108;28;20033;-78
2022/12/31 00:33:49;;;;;;;0.80;0.73;;;;;;;;;;5040833;28;20029;-78
2022/12/31 00:36:18;;;;;;;0.77;0.60;;;;;;;;;;5035363;28;20028;-78
2022/12/31 00:38:46;;;;;;;0.90;0.60;;;;;;;;;;5031121;28;20032;-78
2022/12/31 00:41:13;;;;;;;1.02;0.55;;;;;;;;;;5028524;28;20025;-78
2022/12/31 00:43:39;;;;;;;0.55;0.50;;;;;;;;;;5039314;28;20045;-78
2022/12/31 00:46:05;;;;;;;0.98;0.50;;;;;;;;;;5016772;28;20040;-78
2022/12/31 00:48:31;;;;;;;0.50;0.50;;;;;;;;;;5039394;28;20021;-78
2022/12/31 00:50:56;;;;;;;0.52;0.43;;;;;;;;;;5042293;28;20092;-78
2022/12/31 00:53:24;;;;;;;0.43;0.40;;;;;;;;;;5046584;28;20545;-78
2022/12/31 00:55:50;;;;;;;1.00;0.60;;;;;;;;;;5027185;28;20039;-78
2022/12/31 00:58:15;;;;;;;0.93;0.40;;;;;;;;;;5046049;28;20108;-78
2022/12/31 01:00:41;;;;;;;0.40;0.40;;;;;;;;;;5026555;28;20019;-78
2022/12/31 01:03:07;;;;;;;0.40;0.40;;;;;;;;;;5046278;28;20013;-78
2022/12/31 01:05:33;;;;;;;0.52;0.47;;;;;;;;;;5044941;28;20083;-78
2022/12/31 01:07:59;;;;;;;2.58;0.57;;;;;;;;;;5028276;28;20029;-77
2022/12/31 01:13:09;;;;;;;0.50;0.50;;;;;;;;;;5040730;28;20704;-78
2022/12/31 01:15:36;;;;;;;0.47;0.47;;;;;;;;;;5045654;28;20025;-78
2022/12/31 01:18:06;;;;;;;1.73;0.57;;;;;;;;;;5044827;28;20099;-78
2022/12/31 01:20:41;;;;;;;0.60;0.50;;;;;;;;;;5047446;28;20682;-78
2022/12/31 01:23:08;;;;;;;0.50;0.40;;;;;;;;;;5026031;28;20474;-78
2022/12/31 01:25:35;;;;;;;0.40;0.40;;;;;;;;;;5028157;28;20079;-77
2022/12/31 01:28:03;;;;;;;0.90;0.50;;;;;;;;;;5028084;28;20103;-78
2022/12/31 01:30:28;;;;;;;1.50;0.60;;;;;;;;;;5045627;28;20025;-78
2022/12/31 01:32:54;;;;;;;1.95;0.60;;;;;;;;;;5046990;28;20028;-78
2022/12/31 01:35:20;;;;;;;1.77;0.40;;;;;;;;;;5027834;28;20585;-78
2022/12/31 01:37:45;;;;;;;2.55;0.60;;;;;;;;;;5028289;28;20131;-78
2022/12/31 01:40:11;;;;;;;0.40;0.40;;;;;;;;;;5028498;28;20041;-78
2022/12/31 01:42:36;;;;;;;1.55;0.45;;;;;;;;;;5030362;28;20028;-77
2022/12/31 01:45:01;;;;;;;0.57;0.40;;;;;;;;;;5055735;28;20013;-79
2022/12/31 01:47:36;;;;;;;1.40;0.57;;;;;;;;;;5071655;28;20057;-78
2022/12/31 01:50:08;;;;;;;4.40;0.63;;;;;;;;;;5052796;28;20044;-78
2022/12/31 01:52:36;;;;;;;0.50;0.45;;;;;;;;;;5029112;28;20506;-78
2022/12/31 01:55:13;;;;;;;1.02;0.60;;;;;;;;;;5048669;28;20069;-78
2022/12/31 01:57:40;;;;;;;1.95;0.60;;;;;;;;;;5032242;28;20517;-78
2022/12/31 02:00:06;;;;;;;2.42;0.70;;;;;;;;;;5031569;28;20025;-78
2022/12/31 02:02:32;;;;;;;2.08;0.65;;;;;;;;;;5049281;28;20087;-78
2022/12/31 02:05:00;;;;;;;1.88;0.60;;;;;;;;;;5047700;28;20056;-78
2022/12/31 02:07:25;;;;;;;2.42;0.70;;;;;;;;;;5030754;28;20037;-78
2022/12/31 02:09:52;;;;;;;1.33;0.65;;;;;;;;;;5047372;28;20378;-78
2022/12/31 02:12:17;;;;;;;3.60;0.82;;;;;;;;;;5048141;28;20033;-78
2022/12/31 02:14:47;;;;;;;1.55;0.60;;;;;;;;;;5048587;28;20429;-78
2022/12/31 02:17:31;;;;;;;1.83;0.70;;;;;;;;;;5048532;28;20430;-78
2022/12/31 02:20:49;;;;;;;0.50;0.50;;;;;;;;;;5048441;28;20051;-78
2022/12/31 02:23:45;;;;;;;1.35;0.65;;;;;;;;;;4998741;28;20074;-78
2022/12/31 02:26:53;;;;;;;0.55;0.43;;;;;;;;;;5024695;28;20064;-78
2022/12/31 02:29:55;;;;;;;2.80;0.60;;;;;;;;;;4988961;28;20059;-78
2022/12/31 02:32:34;;;;;;;2.92;0.68;;;;;;;;;;5043251;28;21122;-78
2022/12/31 02:35:14;;;;;;;1.77;0.55;;;;;;;;;;5030066;28;20083;-78
2022/12/31 02:37:42;;;;;;;3.95;0.60;;;;;;;;;;5029727;28;20033;-78
2022/12/31 02:40:12;;;;;;;1.67;0.60;;;;;;;;;;5053122;28;20029;-78
2022/12/31 02:42:38;;;;;;;1.42;0.50;;;;;;;;;;5027582;28;20523;-78
2022/12/31 02:45:03;;;;;;;2.75;0.70;;;;;;;;;;5041662;28;20029;-78
2022/12/31 02:48:02;;;;;;;1.23;0.52;;;;;;;;;;5024816;28;20049;-78
2022/12/31 02:50:54;;;;;;;2.92;0.88;;;;;;;;;;5037875;28;20044;-78
2022/12/31 02:53:33;;;;;;;2.25;0.70;;;;;;;;;;5046945;28;20037;-78
2022/12/31 02:56:18;;;;;;;2.65;0.50;;;;;;;;;;5046800;28;20106;-78
2022/12/31 03:04:35;;;;;;;3.15;0.90;;;;;;;;;;5047615;28;20075;-77
2022/12/31 03:07:13;;;;;;;4.05;0.82;;;;;;;;;;5022807;28;20025;-78
2022/12/31 03:09:38;;;;;;;0.80;0.70;;;;;;;;;;5016685;28;20402;-78
2022/12/31 03:14:51;;;;;;;2.70;0.88;;;;;;;;;;5030473;28;20623;-78
2022/12/31 03:17:16;;;;;;;2.95;0.80;;;;;;;;;;5038067;28;20061;-78
2022/12/31 03:22:28;;;;;;;;;;;;;;;;;;5046015;28;20067;-78
2022/12/31 03:27:47;;;;;;;2.42;1.00;;;;;;;;;;5043444;28;20035;-78
2022/12/31 03:30:15;;;;;;;4.72;0.85;;;;;;;;;;5029508;28;20025;-78
2022/12/31 03:32:41;;;;;;;1.00;0.57;;;;;;;;;;5017984;28;20669;-78
2022/12/31 03:35:07;;;;;;;2.40;0.90;;;;;;;;;;5044636;28;20439;-78
2022/12/31 03:37:33;;;;;;;3.42;0.82;;;;;;;;;;5029263;28;20056;-78
2022/12/31 03:39:58;;;;;;;1.77;0.65;;;;;;;;;;5046619;28;20029;-78
2022/12/31 03:42:24;;;;;;;1.33;0.50;;;;;;;;;;5047005;28;20029;-78
2022/12/31 03:44:49;;;;;;;1.05;0.68;;;;;;;;;;5029287;28;20133;-77
2022/12/31 03:47:14;;;;;;;3.42;0.65;;;;;;;;;;5027782;28;20166;-78
2022/12/31 03:49:40;;;;;;;0.70;0.52;;;;;;;;;;5036056;28;20080;-78
2022/12/31 03:52:05;;;;;;;0.93;0.70;;;;;;;;;;5042256;28;20060;-78
2022/12/31 03:54:31;;;;;;;1.13;0.70;;;;;;;;;;5041466;28;20410;-78
2022/12/31 03:56:57;;;;;;;3.40;0.50;;;;;;;;;;5045166;28;20078;-78
2022/12/31 03:59:22;;;;;;;1.23;0.63;;;;;;;;;;5046800;28;20044;-77
2022/12/31 04:01:47;;;;;;;0.77;0.60;;;;;;;;;;5026443;28;20045;-77
2022/12/31 04:04:12;;;;;;;1.48;0.60;;;;;;;;;;5037097;28;20044;-78
2022/12/31 04:06:38;;;;;;;1.77;0.68;;;;;;;;;;5033805;28;20082;-78
2022/12/31 04:09:03;;;;;;;2.78;0.63;;;;;;;;;;5027330;28;20028;-78
2022/12/31 04:11:28;;;;;;;1.00;0.60;;;;;;;;;;5046761;28;20506;-77
2022/12/31 04:13:54;;;;;;;1.92;0.50;;;;;;;;;;5045807;28;20025;-78
2022/12/31 04:16:19;;;;;;;2.72;0.82;;;;;;;;;;5025099;28;20033;-77
2022/12/31 04:18:44;;;;;;;2.28;0.50;;;;;;;;;;5024466;28;20117;-78
2022/12/31 04:21:09;;;;;;;1.45;0.60;;;;;;;;;;5022238;28;20442;-78
2022/12/31 04:23:35;;;;;;;0.30;0.30;;;;;;;;;;5046204;28;20490;-78
2022/12/31 04:26:00;;;;;;;1.60;0.45;;;;;;;;;;5045531;28;20044;-78
2022/12/31 04:28:26;;;;;;;1.52;0.57;;;;;;;;;;5027764;28;20065;-77
2022/12/31 04:30:51;;;;;;;0.77;0.60;;;;;;;;;;5028120;28;20106;-77
2022/12/31 04:33:16;;;;;;;1.55;0.80;;;;;;;;;;5045042;28;20021;-78
2022/12/31 04:35:42;;;;;;;2.90;0.68;;;;;;;;;;5032867;28;20525;-77
2022/12/31 04:38:07;;;;;;;1.17;0.40;;;;;;;;;;5046028;28;20040;-78
2022/12/31 04:40:33;;;;;;;0.65;0.52;;;;;;;;;;5027257;28;20037;-78
2022/12/31 04:42:58;;;;;;;2.22;0.40;;;;;;;;;;5045842;28;20040;-78
2022/12/31 04:45:23;;;;;;;2.65;0.60;;;;;;;;;;5028149;28;20028;-78
2022/12/31 04:47:49;;;;;;;4.65;0.85;;;;;;;;;;5045265;28;20040;-78
2022/12/31 04:50:14;;;;;;;0.40;0.40;;;;;;;;;;5044302;28;20063;-78
2022/12/31 04:52:39;;;;;;;0.85;0.50;;;;;;;;;;5045351;28;20036;-78
2022/12/31 04:55:05;;;;;;;2.55;0.60;;;;;;;;;;5045175;28;20037;-77
2022/12/31 04:57:30;;;;;;;2.00;0.70;;;;;;;;;;5044427;28;20025;-78
2022/12/31 04:59:55;;;;;;;1.20;0.60;;;;;;;;;;5026652;28;20572;-78
2022/12/31 05:02:21;;;;;;;0.63;0.50;;;;;;;;;;5045181;28;20029;-78
2022/12/31 05:04:46;;;;;;;1.83;0.60;;;;;;;;;;5028635;28;20033;-78
2022/12/31 05:07:11;;;;;;;3.40;0.80;;;;;;;;;;5045861;28;20029;-78
2022/12/31 05:09:36;;;;;;;3.70;0.77;;;;;;;;;;5045989;28;20040;-78
2022/12/31 05:12:02;;;;;;;4.25;0.75;;;;;;;;;;5046340;28;20578;-78
2022/12/31 05:14:27;;;;;;;0.98;0.60;;;;;;;;;;5046186;28;20574;-77
2022/12/31 05:16:53;;;;;;;3.03;0.60;;;;;;;;;;5047173;28;20150;-78
2022/12/31 05:19:18;;;;;;;2.65;0.65;;;;;;;;;;5050046;28;20052;-78
2022/12/31 05:22:27;;;;;;;0.47;0.45;;;;;;;;;;5024710;28;20916;-77
2022/12/31 05:24:29;;;;;;;1.67;0.60;;;;;;;;;;5050031;28;20040;-77
2022/12/31 05:26:55;;;;;;;3.60;1.00;;;;;;;;;;5049405;28;20013;-78
2022/12/31 05:29:20;;;;;;;0.75;0.60;;;;;;;;;;5031087;28;20522;-78
2022/12/31 05:31:46;;;;;;;2.40;0.52;;;;;;;;;;5029654;28;20043;-77
2022/12/31 05:34:11;;;;;;;6.07;1.10;;;;;;;;;;5043713;28;20040;-76
2022/12/31 05:36:36;;;;;;;3.97;0.70;;;;;;;;;;5042450;28;20488;-78
2022/12/31 05:39:01;;;;;;;3.78;0.88;;;;;;;;;;5048915;28;20031;-77
2022/12/31 05:41:27;;;;;;;4.50;1.05;;;;;;;;;;5048077;28;20037;-78
2022/12/31 05:43:52;;;;;;;3.30;0.80;;;;;;;;;;5029780;28;20560;-78
2022/12/31 05:46:17;;;;;;;3.15;0.80;;;;;;;;;;5047905;28;20040;-78
2022/12/31 05:48:43;;;;;;;1.90;0.80;;;;;;;;;;5029798;28;20032;-78
2022/12/31 05:51:08;;;;;;;1.15;0.70;;;;;;;;;;5049021;28;20025;-77
2022/12/31 05:53:34;;;;;;;2.80;0.60;;;;;;;;;;5048678;28;20044;-77
2022/12/31 05:55:59;;;;;;;3.75;0.82;;;;;;;;;;5047226;28;20029;-77
2022/12/31 05:58:24;;;;;;;2.83;0.65;;;;;;;;;;5027300;28;20040;-77
2022/12/31 06:00:51;;;;;;;1.98;0.70;;;;;;;;;;5070855;28;20043;-77
2022/12/31 06:03:16;;;;;;;1.92;0.90;;;;;;;;;;5047220;28;20022;-77
2022/12/31 06:05:42;;;;;;;4.38;0.75;;;;;;;;;;5043618;28;20491;-77
2022/12/31 06:08:08;;;;;;;2.05;0.63;;;;;;;;;;5047164;28;20045;-77
2022/12/31 06:10:33;;;;;;;3.03;0.70;;;;;;;;;;5026181;28;20056;-77
2022/12/31 06:12:58;;;;;;;2.10;0.70;;;;;;;;;;5049001;28;20036;-77
2022/12/31 06:15:24;;;;;;;2.08;0.70;;;;;;;;;;5046729;28;20453;-78
2022/12/31 06:17:49;;;;;;;2.28;1.58;;;;;;;;;;5030764;28;20079;-78
2022/12/31 06:20:14;;;;;;;0.95;0.65;;;;;;;;;;5045929;28;20053;-78
2022/12/31 06:22:40;;;;;;;3.65;0.73;;;;;;;;;;5047725;28;20029;-78
2022/12/31 06:25:05;;;;;;;3.67;0.73;;;;;;;;;;5048321;28;20033;-78
2022/12/31 06:27:30;;;;;;;3.05;0.60;;;;;;;;;;5029507;28;20446;-78
2022/12/31 06:29:56;;;;;;;2.20;0.60;;;;;;;;;;5035155;28;20116;-78
2022/12/31 06:32:21;;;;;;;2.20;0.70;;;;;;;;;;5040284;28;20426;-78
2022/12/31 06:34:46;;;;;;;3.80;0.85;;;;;;;;;;5047544;28;20469;-78
2022/12/31 06:37:12;;;;;;;2.88;0.90;;;;;;;;;;5048155;28;20675;-78
2022/12/31 06:39:37;;;;;;;4.35;0.90;;;;;;;;;;5048189;28;20117;-78
2022/12/31 06:42:02;;;;;;;1.10;0.70;;;;;;;;;;5044817;28;20029;-78
2022/12/31 06:44:28;;;;;;;2.25;1.10;;;;;;;;;;5039846;28;20671;-78
2022/12/31 06:46:53;;;;;;;2.13;0.60;;;;;;;;;;5021603;28;20743;-78
2022/12/31 06:49:18;;;;;;;1.83;0.93;;;;;;;;;;5047520;28;20040;-78
2022/12/31 06:51:44;;;;;;;4.40;0.80;;;;;;;;;;5028386;28;20020;-78
2022/12/31 06:54:10;;;;;;;1.77;0.77;;;;;;;;;;5024516;28;20082;-78
2022/12/31 06:56:36;;;;;;;4.72;1.00;;;;;;;;;;5022089;28;20033;-78
2022/12/31 06:59:03;;;;;;;2.38;0.93;;;;;;;;;;5042990;28;20523;-78
2022/12/31 07:01:38;;;;;;;3.85;1.20;;;;;;;;;;5023247;28;20060;-78
2022/12/31 07:04:41;;;;;;;1.50;0.93;;;;;;;;;;5044964;28;20117;-78
2022/12/31 07:07:32;;;;;;;6.25;1.13;;;;;;;;;;5016663;28;20041;-78
2022/12/31 07:10:06;;;;;;;1.75;0.70;;;;;;;;;;5045440;28;20033;-78
2022/12/31 07:12:55;;;;;;;2.75;0.85;;;;;;;;;;5042193;28;20021;-78
2022/12/31 07:15:36;;;;;;;3.25;0.88;;;;;;;;;;5044645;28;20016;-78
2022/12/31 07:18:19;;;;;;;4.00;1.08;;;;;;;;;;5017369;28;20053;-78
2022/12/31 07:20:44;;;;;;;2.85;0.80;;;;;;;;;;5034698;28;20135;-78
2022/12/31 07:23:10;;;;;;;1.25;0.95;;;;;;;;;;5046397;28;20183;-78
2022/12/31 07:25:39;;;;;;;4.63;1.00;;;;;;;;;;5046212;28;20120;-78
2022/12/31 07:28:23;;;;;;;6.55;1.00;;;;;;;;;;5041664;28;20033;-78
2022/12/31 07:31:27;;;;;;;4.25;0.82;;;;;;;;;;5033661;28;20068;-78
2022/12/31 07:34:07;;;;;;;3.33;0.93;;;;;;;;;;5033852;28;20048;-78
2022/12/31 07:37:04;;;;;;;3.55;0.95;;;;;;;;;;5045822;28;20084;-78
2022/12/31 07:40:00;;;;;;;1.95;0.90;;;;;;;;;;5014947;28;20036;-78
2022/12/31 07:42:41;;;;;;;2.22;0.73;;;;;;;;;;5047562;28;20104;-78
2022/12/31 07:45:17;;;;;;;3.90;0.90;;;;;;;;;;5035965;28;20410;-78
2022/12/31 07:47:43;;;;;;;1.25;0.90;;;;;;;;;;5028025;28;20437;-78
2022/12/31 07:50:14;;;;;;;2.15;0.90;;;;;;;;;;5044953;28;20525;-77
2022/12/31 07:52:40;;;;;;;4.55;0.90;;;;;;;;;;5043505;28;20037;-77
2022/12/31 07:55:05;;;;;;;4.05;1.00;;;;;;;;;;5028814;28;20544;-77
2022/12/31 07:57:48;;;;;;;4.80;1.02;;;;;;;;;;5042234;28;20028;-77
2022/12/31 08:00:14;;;;;;;0.90;0.70;;;;;;;;;;5056011;28;20495;-78
2022/12/31 08:02:45;;;;;;;3.90;1.00;;;;;;;;;;5025689;28;20037;-78
2022/12/31 08:05:10;;;;;;;3.50;1.10;;;;;;;;;;5026270;28;20048;-78
2022/12/31 08:07:42;;;;;;;4.38;1.17;;;;;;;;;;5042636;28;20410;-77
2022/12/31 08:10:33;;;;;;;1.13;0.82;;;;;;;;;;5029002;28;20029;-78
2022/12/31 08:13:02;;;;;;;5.07;0.90;;;;;;;;;;5024091;28;20076;-77
2022/12/31 08:15:28;;;;;;;3.65;0.93;;;;;;;;;;5045320;28;20048;-77
2022/12/31 08:17:54;;;;;;;4.55;1.10;;;;;;;;;;5026231;28;20029;-77
2022/12/31 08:20:19;;;;;;;2.97;0.90;;;;;;;;;;5044923;28;20053;-77
2022/12/31 08:23:06;;;;;;;2.17;0.95;;;;;;;;;;5045085;28;20091;-77
2022/12/31 08:25:50;;;;;;;2.85;1.08;;;;;;;;;;5027764;28;20418;-77
2022/12/31 08:28:34;;;;;;;;;;;;;;;;;;5027765;28;20521;-77
2022/12/31 08:31:23;;;;;;;5.97;1.05;;;;;;;;;;5044342;28;19966;-77
2022/12/31 08:34:19;;;;;;;4.68;1.10;;;;;;;;;;5026939;28;20112;-77
2022/12/31 08:36:57;;;;;;;2.92;1.00;;;;;;;;;;5039597;28;20100;-77
2022/12/31 08:39:28;;;;;;;3.42;1.02;;;;;;;;;;5025691;28;20024;-77
2022/12/31 08:41:56;;;;;;;2.90;0.80;;;;;;;;;;5026591;28;20468;-77
2022/12/31 08:44:26;;;;;;;3.65;1.13;;;;;;;;;;5026198;28;20057;-77
2022/12/31 08:46:59;;;;;;;3.10;0.90;;;;;;;;;;5026915;28;20045;-77
2022/12/31 08:49:26;;;;;;;2.88;1.00;;;;;;;;;;5044086;28;20033;-77
2022/12/31 08:51:52;;;;;;;3.90;0.93;;;;;;;;;;5025558;28;20029;-77
2022/12/31 08:54:18;;;;;;;2.65;1.00;;;;;;;;;;5024197;28;20027;-77
2022/12/31 08:57:20;;;;;;;4.88;1.20;;;;;;;;;;5036145;28;20191;-77
2022/12/31 09:00:04;;;;;;;3.55;1.13;;;;;;;;;;5034964;28;20051;-77
2022/12/31 09:03:00;;;;;;;2.15;1.00;;;;;;;;;;5030442;28;20068;-77
2022/12/31 09:06:03;;;;;;;4.97;1.15;;;;;;;;;;5042261;28;20033;-76
2022/12/31 09:08:38;;;;;;;4.38;1.15;;;;;;;;;;5041554;28;20465;-76
2022/12/31 09:11:28;;;;;;;2.40;1.20;;;;;;;;;;5025610;28;20111;-77
2022/12/31 09:14:06;;;;;;;5.65;1.75;;;;;;;;;;5026270;28;20040;-77
2022/12/31 09:17:09;;;;;;;3.20;1.25;;;;;;;;;;5043662;28;20509;-77
2022/12/31 09:19:34;;;;;;;9.52;2.83;;;;;;;;;;5041137;28;20057;-77
2022/12/31 09:22:00;;;;;;;20.40;3.92;;;;;;;;;;5026039;28;20392;-76
2022/12/31 09:24:26;;;;;;;5.55;1.98;;;;;;;;;;5025736;28;20071;-77
2022/12/31 09:27:12;;;;;;;10.60;2.30;;;;;;;;;;5015642;28;20459;-77
2022/12/31 09:29:46;;;;;;;3.08;1.00;;;;;;;;;;5029249;28;20049;-76
2022/12/31 09:32:27;;;;;;;8.20;1.83;;;;;;;;;;5016497;28;20048;-76
2022/12/31 09:35:02;;;;;;;7.47;2.70;;;;;;;;;;5030244;28;20037;-77
2022/12/31 09:37:48;;;;;;;6.90;2.22;;;;;;;;;;5009535;28;20044;-78
2022/12/31 09:40:45;;;;;;;5.40;1.10;;;;;;;;;;5014529;28;20033;-77
2022/12/31 09:43:53;;;;;;;6.97;1.27;;;;;;;;;;5043787;28;20540;-77
2022/12/31 09:46:26;;;;;;;3.95;1.48;;;;;;;;;;5026193;28;20045;-77
2022/12/31 09:49:03;;;;;;;4.88;1.35;;;;;;;;;;5025545;28;20029;-77
2022/12/31 09:51:46;;;;;;;3.30;1.25;;;;;;;;;;5044759;28;20582;-77
2022/12/31 09:54:21;;;;;;;4.38;1.08;;;;;;;;;;5000083;28;20044;-77
2022/12/31 09:57:04;;;;;;;3.60;1.25;;;;;;;;;;5043499;28;20126;-77
2022/12/31 09:59:45;;;;;;;3.30;1.20;;;;;;;;;;5026007;28;20206;-77
2022/12/31 10:02:35;;;;;;;2.83;1.15;;;;;;;;;;5026038;28;20276;-77
2022/12/31 10:05:22;;;;;;;5.05;1.67;;;;;;;;;;5047399;28;20044;-77
2022/12/31 10:08:09;;;;;;;2.97;1.08;;;;;;;;;;5037724;28;20033;-77
2022/12/31 10:10:52;;;;;;;7.55;1.60;;;;;;;;;;5051490;28;20034;-77
2022/12/31 10:13:30;;;;;;;4.47;1.58;;;;;;;;;;5045604;28;20037;-77
2022/12/31 10:16:37;;;;;;;3.60;1.50;;;;;;;;;;5048040;28;20044;-77
2022/12/31 10:19:28;;;;;;;5.28;1.63;;;;;;;;;;5033164;28;20033;-77
2022/12/31 10:22:15;;;;;;;3.42;1.10;;;;;;;;;;5035254;28;20025;-78
2022/12/31 10:25:08;;;;;;;3.90;1.10;;;;;;;;;;5034838;28;20044;-77
2022/12/31 10:27:57;;;;;;;2.42;1.05;;;;;;;;;;5025374;28;20021;-77
2022/12/31 10:30:23;;;;;;;2.83;0.95;;;;;;;;;;5030123;28;20021;-76
2022/12/31 10:32:55;;;;;;;8.45;1.30;;;;;;;;;;5040900;28;20048;-75
2022/12/31 10:35:35;;;;;;;7.78;1.75;;;;;;;;;;5019941;28;20044;-76
2022/12/31 10:38:18;;;;;;;4.55;1.20;;;;;;;;;;5013755;28;20041;-76
2022/12/31 10:41:06;;;;;;;2.50;1.10;;;;;;;;;;5033414;28;20064;-76
2022/12/31 10:43:53;;;;;;;3.50;1.42;;;;;;;;;;5038030;28;20511;-75
2022/12/31 10:46:40;;;;;;;6.55;1.50;;;;;;;;;;5033590;28;20045;-76
2022/12/31 10:49:28;;;;;;;5.00;1.40;;;;;;;;;;5044592;28;20037;-76
2022/12/31 10:52:14;;;;;;;4.93;1.40;;;;;;;;;;5028487;28;20033;-76
2022/12/31 10:54:46;;;;;;;5.38;1.40;;;;;;;;;;5034296;28;20024;-76
2022/12/31 10:57:48;;;;;;;4.45;1.13;;;;;;;;;;5026610;28;20048;-76
2022/12/31 11:00:23;;;;;;;3.70;1.48;;;;;;;;;;5040313;28;20056;-75
2022/12/31 11:03:06;;;;;;;7.55;1.50;;;;;;;;;;5038025;28;20044;-76
2022/12/31 11:05:56;;;;;;;3.75;1.40;;;;;;;;;;5019234;28;20064;-75
2022/12/31 11:08:39;;;;;;;6.13;1.80;;;;;;;;;;5038959;28;20621;-76
2022/12/31 11:11:36;;;;;;;6.40;1.27;;;;;;;;;;5046208;28;20057;-75
2022/12/31 11:14:32;;;;;;;3.08;1.42;;;;;;;;;;5026716;28;20036;-75
2022/12/31 11:17:27;;;;;;;3.15;1.40;;;;;;;;;;5040700;28;20064;-76
2022/12/31 11:20:17;;;;;;;6.15;1.60;;;;;;;;;;5027353;28;20051;-75
2022/12/31 11:22:52;;;;;;;5.25;1.20;;;;;;;;;;5041515;28;20041;-75
2022/12/31 11:25:30;;;;;;;2.72;1.30;;;;;;;;;;5045351;28;20056;-75
2022/12/31 11:28:32;;;;;;;5.97;1.40;;;;;;;;;;5044521;28;20040;-76
2022/12/31 11:31:09;;;;;;;5.30;1.40;;;;;;;;;;5027423;28;20040;-75
2022/12/31 11:33:43;;;;;;;6.28;1.40;;;;;;;;;;5045600;28;20028;-74
2022/12/31 11:36:30;;;;;;;6.78;1.33;;;;;;;;;;5028440;28;20017;-75
2022/12/31 11:39:20;;;;;;;4.05;1.20;;;;;;;;;;5046446;28;20079;-75
2022/12/31 11:41:51;;;;;;;2.67;1.05;;;;;;;;;;5024218;28;20456;-75
2022/12/31 11:44:39;;;;;;;3.25;1.25;;;;;;;;;;5045578;28;20079;-75
2022/12/31 11:47:22;;;;;;;5.05;1.20;;;;;;;;;;5043453;28;20075;-76
2022/12/31 11:50:12;;;;;;;3.78;1.20;;;;;;;;;;5035967;28;20029;-75
2022/12/31 11:53:16;;;;;;;4.82;1.23;;;;;;;;;;5042670;28;20660;-81
2022/12/31 11:56:00;;;;;;;2.65;1.60;;;;;;;;;;5008408;28;20764;-77
2022/12/31 11:58:27;;;;;;;6.22;1.50;;;;;;;;;;5038680;28;20546;-77
2022/12/31 12:01:08;;;;;;;3.65;1.40;;;;;;;;;;5036057;28;20036;-77
2022/12/31 12:03:37;;;;;;;4.72;1.48;;;;;;;;;;5039788;28;20745;-78
2022/12/31 12:06:03;;;;;;;5.22;1.55;;;;;;;;;;5045393;28;20475;-78
2022/12/31 12:08:31;;;;;;;4.20;1.63;;;;;;;;;;5044926;28;20059;-77
2022/12/31 12:11:04;;;;;;;5.35;1.65;;;;;;;;;;5020369;28;20134;-82
2022/12/31 12:13:29;;;;;;;4.78;1.25;;;;;;;;;;5036508;28;20533;-78
2022/12/31 12:15:58;;;;;;;4.40;1.70;;;;;;;;;;5036391;28;20036;-77
2022/12/31 12:18:32;;;;;;;5.38;1.63;;;;;;;;;;5020378;28;20025;-79
2022/12/31 12:21:16;;;;;;;5.43;1.70;;;;;;;;;;5038069;28;20049;-78
2022/12/31 12:24:03;;;;;;;5.05;1.55;;;;;;;;;;5043840;28;20120;-77
2022/12/31 12:26:32;;;;;;;4.43;1.60;;;;;;;;;;5042733;28;20132;-77
2022/12/31 12:29:06;;;;;;;9.07;1.88;;;;;;;;;;5043352;28;20113;-78
2022/12/31 12:31:32;;;;;;;12.18;2.58;;;;;;;;;;5044392;28;20074;-77
2022/12/31 12:33:58;;;;;;;5.68;1.90;;;;;;;;;;5026543;28;20545;-79
2022/12/31 12:36:23;;;;;;;3.80;1.70;;;;;;;;;;5027368;28;20013;-79
2022/12/31 12:39:00;;;;;;;4.07;1.60;;;;;;;;;;5044050;28;20041;-79
2022/12/31 12:41:26;;;;;;;3.03;1.42;;;;;;;;;;5039771;28;20546;-79
2022/12/31 12:44:13;;;;;;;2.38;1.25;;;;;;;;;;5043907;28;20052;-79
2022/12/31 12:46:51;;;;;;;9.88;1.98;;;;;;;;;;5045092;28;20117;-79
2022/12/31 12:49:28;;;;;;;4.78;1.40;;;;;;;;;;5018656;28;20029;-79
2022/12/31 12:52:12;;;;;;;4.15;1.73;;;;;;;;;;5043621;28;20040;-79
2022/12/31 12:54:56;;;;;;;5.95;1.85;;;;;;;;;;5032990;28;20029;-79
2022/12/31 12:57:30;;;;;;;;;;;;;;;;;;5043002;28;20028;-79
2022/12/31 13:00:03;;;;;;;6.15;2.35;;;;;;;;;;5022734;28;20047;-78
2022/12/31 13:02:32;;;;;;;5.07;1.80;;;;;;;;;;5026027;28;20025;-79
2022/12/31 13:05:25;;;;;;;7.47;1.55;;;;;;;;;;5034324;28;20037;-79
2022/12/31 13:08:31;;;;;;;3.63;1.88;;;;;;;;;;5041682;28;20037;-78
2022/12/31 13:11:10;;;;;;;7.20;1.63;;;;;;;;;;4995913;28;20037;-79
2022/12/31 13:13:47;;;;;;;6.25;1.80;;;;;;;;;;5025840;28;20033;-78
2022/12/31 13:16:29;;;;;;;4.10;1.38;;;;;;;;;;5026708;28;20029;-78
2022/12/31 13:19:16;;;;;;;7.53;2.30;;;;;;;;;;5037837;28;20053;-79
2022/12/31 13:21:56;;;;;;;4.10;1.55;;;;;;;;;;5025934;28;20453;-78
2022/12/31 13:24:49;;;;;;;5.93;2.15;;;;;;;;;;5035947;28;20401;-79
2022/12/31 13:27:26;;;;;;;5.13;1.98;;;;;;;;;;5043573;28;20588;-79
2022/12/31 13:29:53;;;;;;;3.67;1.30;;;;;;;;;;5025756;28;20041;-79
2022/12/31 13:32:24;;;;;;;6.10;1.98;;;;;;;;;;5024708;28;20060;-79
2022/12/31 13:34:55;;;;;;;6.45;1.75;;;;;;;;;;5025028;28;20025;-79
2022/12/31 13:37:30;;;;;;;11.43;1.98;;;;;;;;;;5026399;28;20044;-79
2022/12/31 13:40:01;;;;;;;4.85;2.10;;;;;;;;;;5039905;28;20449;-79
2022/12/31 13:42:46;;;;;;;1.13;1.00;;;;;;;;;;5044279;28;20028;-79
2022/12/31 13:45:19;;;;;;;6.72;1.60;;;;;;;;;;5030452;28;20580;-79
2022/12/31 13:47:51;;;;;;;8.48;2.15;;;;;;;;;;5024928;28;20553;-78
2022/12/31 13:50:30;;;;;;;6.78;1.75;;;;;;;;;;5014083;28;20029;-81
2022/12/31 13:53:01;;;;;;;3.17;1.20;;;;;;;;;;5043025;28;20037;-80
2022/12/31 13:55:35;;;;;;;4.28;1.63;;;;;;;;;;5044355;28;20721;-81
2022/12/31 13:58:30;;;;;;;7.63;2.15;;;;;;;;;;5046204;28;20033;-78
2022/12/31 14:01:03;;;;;;;5.85;1.90;;;;;;;;;;5046354;28;21018;-78
2022/12/31 14:03:28;;;;;;;;;;;;;;;;;;5028397;28;20029;-83
2022/12/31 14:05:59;;;;;;;3.27;1.83;;;;;;;;;;5047591;28;19986;-84
2022/12/31 14:08:25;;;;;;;5.63;1.67;;;;;;;;;;5038812;28;20279;-83
2022/12/31 14:11:17;;;;;;;5.50;2.05;;;;;;;;;;5046812;28;20020;-85
2022/12/31 14:14:09;;;;;;;5.10;1.90;;;;;;;;;;5066818;28;20045;-84
2022/12/31 14:17:30;;;;;;;7.25;1.80;;;;;;;;;;5050906;28;20051;-82
2022/12/31 14:20:07;;;;;;;4.18;1.60;;;;;;;;;;4965850;28;20131;-81
2022/12/31 14:22:44;;;;;;;5.43;1.95;;;;;;;;;;5030457;28;20403;-82
2022/12/31 14:25:21;;;;;;;6.68;1.50;;;;;;;;;;5029980;28;20110;-81
2022/12/31 14:27:49;;;;;;;3.22;1.75;;;;;;;;;;5038765;28;20025;-82
2022/12/31 14:30:18;;;;;;;3.08;1.42;;;;;;;;;;5047583;28;20056;-82
2022/12/31 14:33:16;;;;;;;3.15;1.58;;;;;;;;;;5029508;28;20071;-83
2022/12/31 14:35:51;;;;;;;5.85;1.80;;;;;;;;;;5030299;28;20029;-81
2022/12/31 14:38:31;;;;;;;5.32;1.80;;;;;;;;;;5024812;28;20037;-81
2022/12/31 14:41:14;;;;;;;4.15;1.40;;;;;;;;;;5025604;28;20029;-82
2022/12/31 14:43:49;;;;;;;3.90;1.67;;;;;;;;;;5027436;28;20120;-81
2022/12/31 14:46:24;;;;;;;6.40;1.60;;;;;;;;;;5047023;28;20068;-81
2022/12/31 14:49:14;;;;;;;4.70;1.83;;;;;;;;;;5044676;28;20083;-81
2022/12/31 14:51:40;;;;;;;3.67;1.52;;;;;;;;;;5028415;28;20498;-81
2022/12/31 14:54:25;;;;;;;3.95;1.60;;;;;;;;;;5026573;28;20044;-82
2022/12/31 14:56:51;;;;;;;5.20;1.45;;;;;;;;;;5026962;28;20520;-82
2022/12/31 14:59:30;;;;;;;5.18;1.80;;;;;;;;;;5045116;28;20525;-80
2022/12/31 15:01:57;;;;;;;5.00;1.48;;;;;;;;;;5044915;28;20040;-82
2022/12/31 15:04:32;;;;;;;3.92;1.58;;;;;;;;;;5046583;28;20051;-82
2022/12/31 15:07:15;;;;;;;3.72;1.35;;;;;;;;;;5027614;28;20067;-81
2022/12/31 15:09:46;;;;;;;6.80;2.00;;;;;;;;;;5026848;28;20440;-81
2022/12/31 15:12:27;;;;;;;5.00;1.85;;;;;;;;;;5045741;28;20092;-80
2022/12/31 15:15:18;;;;;;;2.92;1.52;;;;;;;;;;5044610;28;20116;-82
2022/12/31 15:18:21;;;;;;;5.00;3.15;;;;;;;;;;5027837;28;20557;-82
2022/12/31 15:21:00;;;;;;;5.22;1.42;;;;;;;;;;5035296;28;20049;-82
2022/12/31 15:23:34;;;;;;;3.72;1.60;;;;;;;;;;5025365;28;20051;-82
2022/12/31 15:26:00;;;;;;;2.22;1.50;;;;;;;;;;5044428;28;20051;-82
2022/12/31 15:28:33;;;;;;;6.15;1.77;;;;;;;;;;5045545;28;20120;-82
2022/12/31 15:31:07;;;;;;;3.20;1.42;;;;;;;;;;5023065;28;20045;-82
2022/12/31 15:33:37;;;;;;;;;;;;;;;;;;5028514;28;20036;-82
2022/12/31 15:36:18;;;;;;;4.18;1.45;;;;;;;;;;5045395;28;19927;-82
2022/12/31 15:38:44;;;;;;;2.13;1.10;;;;;;;;;;5028174;28;20037;-82
2022/12/31 15:41:35;;;;;;;5.35;1.50;;;;;;;;;;5046079;28;20029;-82
2022/12/31 15:44:27;;;;;;;2.95;1.42;;;;;;;;;;5022662;28;20502;-83
2022/12/31 15:47:14;;;;;;;4.60;1.70;;;;;;;;;;5032778;28;20159;-83